Plattsmouth, NE (68048)

9:51 AM CDT on August 04, 2015 (GMT -0500)
Cullom, NE | | Change Station
CLOSE
Current Station
Personal Weather Station
Location: Plattsmouth, NE
Elevation: 1047 ft
Nearby Weather Stations

Elev 1047 ft 41.04 °N, 96.02 °W | Updated 1 minute ago

Rain
Rain
--
Feels Like --
N
-
Wind Variable Wind from North
Gusts 0.0 mph

Today
High -- | Low -- °F
--% Chance of Precip.
Yesterday
High -- | Low -- °F
Precip. -- in
6:22 AM 8:36 PM
Waning Gibbous, 77% visible
Pressure 30.07 in
Visibility 5.0 miles
Clouds Mostly Cloudy 300 ft
Mostly Cloudy 3900 ft
Overcast 9000 ft
Dew Point Not available.
Humidity Not available.
Rainfall 0.00 in
Snow Depth Not available.
UV 1 out of 12
Pollen 4.80 out of 12
Air Quality Not available.
Flu Activity Not available.
METAR KPMV 041435Z AUTO 00000KT 5SM -VCTSRA BKN003 BKN039 OVC090 19/18 A3007 RMK AO2 LTG DSNT ALQS P0004 T01860180

More Conditions Fewer Conditions

Pressure 30.07 in
Visibility 5.0 miles
Clouds Mostly Cloudy 300 ft
Mostly Cloudy 3900 ft
Overcast 9000 ft
Dew Point Not available.
Humidity Not available.
Rainfall 0.00 in
Snow Depth Not available.
UV 1 out of 12
Pollen 4.80 out of 12
Air Quality Not available.
Flu Activity Not available.
METAR KPMV 041435Z AUTO 00000KT 5SM -VCTSRA BKN003 BKN039 OVC090 19/18 A3007 RMK AO2 LTG DSNT ALQS P0004 T01860180

More Conditions Fewer Conditions

10-Day Weather Forecast

×

Almanac

Astronomy

Aug. 04, 2015 Rise Set
Actual Time
Civil Twilight
Nautical Twilight
Astronomical Twilight
Moon
Length of Visible Light
Length of Day
Tomorrow will be .
, % of the Moon is Illuminated

Today's Extremes

State Highs State Lows

Community

WunderPhotos

Upload Photos

1,843,921 photos uploaded!

WunderBlogs® & News

Nearby

Air Quality

  Air Quality AQ Index Pollutant
Not available.

Snow Depth

Station Depth Elevation

Earthquake Activity

City Distance Mag. Time & Date
Minimum magnitude displayed is 2.5.

Coastal Water Temperatures

Place Temperature

Stations

Nearby Weather Stations

Station Location Temp. Windchill Dew Point Humidity Wind Precip. Elev Updated Type